Terminal Aerodrome Forecast
Issued by NWS

Current Version | Previous Version | Text Only | Print | Product List | Glossary On
Versions: 1 2 3 4 5 6 7 8 9 10 11 12 13 14 15 16 17
000
FTAK31 PAFA 152336
TAFASC
TAF
PASC 152336Z 1600/1624 VRB04KT P6SM FEW120
     FM161000 25004KT 2SM BR SCT002 BKN050
     FM161700 26005KT 4SM BR SCT002 BKN015=

USA.gov is the U.S. government's official web portal to all federal, state and local government web resources and services.